createdAt,value
2019-02-04T00:01:25.728Z,19.20
2019-02-04T00:03:56.133Z,19.40
2019-02-04T00:06:28.664Z,19.50
2019-02-04T00:08:57.887Z,19.70
2019-02-04T00:11:27.222Z,19.90
2019-02-04T00:14:11.270Z,20.10
2019-02-04T00:16:43.144Z,20.30
2019-02-04T00:19:17.113Z,20.40
2019-02-04T00:21:46.093Z,20.60
2019-02-04T00:24:27.409Z,20.70
2019-02-04T00:27:08.730Z,20.70
2019-02-04T00:29:41.703Z,20.70
2019-02-04T00:34:49.213Z,20.60
2019-02-04T00:37:28.566Z,20.60
2019-02-04T00:40:00.351Z,20.50
2019-02-04T00:42:32.034Z,20.50
2019-02-04T00:45:20.916Z,20.40
2019-02-04T00:47:58.739Z,20.40
2019-02-04T00:50:50.508Z,20.30
2019-02-04T00:53:20.623Z,20.30
2019-02-04T00:55:59.614Z,20.20
2019-02-04T00:58:32.310Z,20.10
2019-02-04T01:01:16.594Z,20.10
2019-02-04T01:03:50.416Z,20.00
2019-02-04T01:06:27.539Z,19.90
2019-02-04T01:09:15.127Z,19.90
2019-02-04T01:14:48.168Z,19.80
2019-02-04T01:17:17.778Z,19.80
2019-02-04T01:19:47.220Z,19.60
2019-02-04T01:22:16.374Z,19.60
2019-02-04T01:24:49.309Z,19.50
2019-02-04T01:30:04.496Z,19.50
2019-02-04T01:32:43.925Z,19.50
2019-02-04T01:35:24.362Z,19.50
2019-02-04T01:37:55.256Z,19.50
2019-02-04T01:40:40.195Z,19.50
2019-02-04T01:43:09.728Z,19.50
2019-02-04T01:45:41.054Z,19.40
2019-02-04T01:48:25.382Z,19.40
2019-02-04T01:51:16.248Z,19.40
2019-02-04T01:53:47.779Z,19.30
2019-02-04T01:56:39.884Z,19.30
2019-02-04T02:02:22.090Z,19.20
2019-02-04T02:05:00.724Z,19.20
2019-02-04T02:07:49.691Z,19.20
2019-02-04T02:10:35.417Z,19.10
2019-02-04T02:13:30.479Z,19.10
2019-02-04T02:19:07.958Z,19.10
2019-02-04T02:21:37.419Z,19.00
2019-02-04T02:24:11.625Z,19.00
2019-02-04T02:26:49.213Z,19.00
2019-02-04T02:31:54.255Z,19.00
2019-02-04T02:34:25.298Z,19.00
2019-02-04T02:39:32.923Z,19.00
2019-02-04T02:42:24.354Z,19.00
2019-02-04T02:47:50.427Z,18.90
2019-02-04T02:51:01.081Z,18.90
2019-02-04T02:53:44.222Z,18.90
2019-02-04T02:56:23.449Z,18.90
2019-02-04T02:59:25.562Z,18.90
2019-02-04T03:05:11.153Z,18.90
2019-02-04T03:08:13.131Z,18.80
2019-02-04T03:10:45.651Z,18.80
2019-02-04T03:13:25.893Z,18.80
2019-02-04T03:16:03.400Z,18.80
2019-02-04T03:18:36.253Z,18.80
2019-02-04T03:21:17.640Z,18.80
2019-02-04T03:26:41.214Z,18.70
2019-02-04T03:29:14.839Z,18.70
2019-02-04T03:35:08.995Z,18.70
2019-02-04T03:37:42.522Z,18.70
2019-02-04T03:40:15.199Z,18.70
2019-02-04T03:42:55.467Z,18.60
2019-02-04T03:45:32.850Z,18.60
2019-02-04T03:48:06.420Z,18.60
2019-02-04T03:50:48.191Z,18.60
2019-02-04T03:53:33.173Z,18.60
2019-02-04T03:56:15.899Z,18.50
2019-02-04T03:58:47.312Z,18.50
2019-02-04T04:01:25.768Z,18.50
2019-02-04T04:04:00.089Z,18.50
2019-02-04T04:06:36.956Z,18.50
2019-02-04T04:09:05.371Z,18.50
2019-02-04T04:11:38.919Z,18.50
2019-02-04T04:14:14.469Z,18.50
2019-02-04T04:16:56.384Z,18.40
2019-02-04T04:19:26.846Z,18.40
2019-02-04T04:22:02.335Z,18.40
2019-02-04T04:24:35.859Z,18.40
2019-02-04T04:27:14.756Z,18.40
2019-02-04T04:29:45.440Z,18.40
2019-02-04T04:32:34.730Z,18.40
2019-02-04T04:35:15.351Z,18.30
2019-02-04T04:38:10.379Z,18.30
2019-02-04T04:40:43.877Z,18.30
2019-02-04T04:43:16.052Z,18.30
2019-02-04T04:46:06.286Z,18.30
2019-02-04T04:48:41.383Z,18.20
2019-02-04T04:51:25.201Z,18.20
2019-02-04T04:54:22.384Z,18.20
2019-02-04T04:56:51.534Z,18.20
2019-02-04T04:59:28.371Z,18.20
2019-02-04T05:02:01.545Z,18.20
2019-02-04T05:07:35.346Z,18.20
2019-02-04T05:10:23.859Z,18.20
2019-02-04T05:12:55.525Z,18.20
2019-02-04T05:15:32.963Z,18.20
2019-02-04T05:18:02.946Z,18.20
2019-02-04T05:20:38.185Z,18.20
2019-02-04T05:23:17.353Z,18.20
2019-02-04T05:25:46.900Z,18.20
2019-02-04T05:28:27.335Z,18.10
2019-02-04T05:31:03.466Z,18.10
2019-02-04T05:33:43.488Z,18.20
2019-02-04T05:36:25.943Z,18.10
2019-02-04T05:39:18.485Z,18.10
2019-02-04T05:42:16.060Z,18.10
2019-02-04T05:44:50.767Z,18.10
2019-02-04T05:47:38.154Z,18.00
2019-02-04T05:50:11.791Z,18.00
2019-02-04T05:55:32.296Z,18.10
2019-02-04T06:01:26.948Z,18.00
2019-02-04T06:04:03.969Z,18.00
2019-02-04T06:06:33.126Z,17.90
2019-02-04T06:09:04.104Z,17.90
2019-02-04T06:11:50.121Z,17.90
2019-02-04T06:14:20.210Z,17.90
2019-02-04T06:16:49.767Z,17.90
2019-02-04T06:19:18.969Z,17.90
2019-02-04T06:21:48.387Z,17.90
2019-02-04T06:24:17.573Z,17.90
2019-02-04T06:26:51.086Z,17.90
2019-02-04T06:31:51.400Z,17.90
2019-02-04T06:34:35.306Z,17.90
2019-02-04T06:37:05.909Z,17.80
2019-02-04T06:39:36.613Z,17.80
2019-02-04T06:42:43.459Z,17.80
2019-02-04T06:45:04.324Z,17.80
2019-02-04T06:47:39.279Z,17.70
2019-02-04T06:50:12.393Z,17.70
2019-02-04T06:52:47.424Z,17.70
2019-02-04T06:55:28.331Z,17.70
2019-02-04T06:57:57.324Z,17.70
2019-02-04T07:00:35.865Z,17.70
2019-02-04T07:03:06.078Z,17.70
2019-02-04T07:05:54.054Z,17.70
2019-02-04T07:08:23.159Z,17.70
2019-02-04T07:10:52.282Z,17.70
2019-02-04T07:13:24.367Z,17.70
2019-02-04T07:16:06.353Z,17.80
2019-02-04T07:18:35.286Z,17.80
2019-02-04T07:21:06.639Z,17.90
2019-02-04T07:23:43.533Z,17.90
2019-02-04T07:26:30.766Z,18.00
2019-02-04T07:28:53.227Z,18.10
2019-02-04T07:31:26.328Z,18.40
2019-02-04T07:34:00.819Z,18.60
2019-02-04T07:36:33.291Z,18.70
2019-02-04T07:39:04.385Z,19.00
2019-02-04T07:41:42.273Z,19.10
2019-02-04T07:44:12.471Z,19.30
2019-02-04T07:47:27.012Z,19.40
2019-02-04T07:50:03.391Z,19.60
2019-02-04T07:56:22.373Z,19.90
2019-02-04T07:58:51.451Z,20.00
2019-02-04T08:01:20.440Z,20.10
2019-02-04T08:03:50.440Z,20.20
2019-02-04T08:06:20.424Z,20.30
2019-02-04T08:08:59.687Z,20.40
2019-02-04T08:11:33.291Z,20.50
2019-02-04T08:14:06.221Z,20.60
2019-02-04T08:16:38.303Z,20.70
2019-02-04T08:19:10.818Z,20.80
2019-02-04T08:21:40.210Z,20.90
2019-02-04T08:24:16.113Z,20.90
2019-02-04T08:26:50.642Z,21.00
2019-02-04T08:29:26.759Z,21.10
2019-02-04T08:32:01.384Z,21.10
2019-02-04T08:34:31.482Z,21.20
2019-02-04T08:37:00.883Z,21.30
2019-02-04T08:39:35.782Z,21.30
2019-02-04T08:42:08.262Z,21.30
2019-02-04T08:44:39.485Z,21.40
2019-02-04T08:47:22.346Z,21.50
2019-02-04T08:50:06.692Z,21.50
2019-02-04T08:52:37.797Z,21.60
2019-02-04T08:55:17.361Z,21.70
2019-02-04T08:57:50.739Z,21.80
2019-02-04T09:00:39.280Z,21.80
2019-02-04T09:03:46.761Z,21.90
2019-02-04T09:06:17.413Z,22.00
2019-02-04T09:08:56.370Z,22.10
2019-02-04T09:11:32.052Z,22.10
2019-02-04T09:14:04.672Z,22.20
2019-02-04T09:16:34.874Z,22.20
2019-02-04T09:19:07.423Z,22.30
2019-02-04T09:21:53.392Z,22.30
2019-02-04T09:24:23.488Z,22.40
2019-02-04T09:27:23.655Z,22.40
2019-02-04T09:29:53.702Z,22.40
2019-02-04T09:32:23.759Z,22.40
2019-02-04T09:34:53.024Z,22.30
2019-02-04T09:37:24.492Z,22.20
2019-02-04T09:40:21.239Z,22.10
2019-02-04T09:42:54.136Z,22.10
2019-02-04T09:45:28.300Z,22.10
2019-02-04T09:48:04.735Z,22.00
2019-02-04T09:58:38.984Z,22.00
2019-02-04T10:01:09.630Z,22.00
2019-02-04T10:03:39.868Z,21.90
2019-02-04T10:06:27.089Z,21.80
2019-02-04T10:11:45.462Z,21.60
2019-02-04T10:14:14.725Z,21.50
2019-02-04T10:16:44.152Z,21.40
2019-02-04T10:19:14.623Z,21.40
2019-02-04T10:21:49.546Z,21.30
2019-02-04T10:24:22.458Z,21.20
2019-02-04T10:26:53.614Z,21.20
2019-02-04T10:29:24.253Z,21.10
2019-02-04T10:31:59.576Z,21.10
2019-02-04T10:34:33.035Z,21.00
2019-02-04T10:37:14.083Z,21.00
2019-02-04T10:40:29.996Z,20.90
2019-02-04T10:42:53.599Z,20.80
2019-02-04T10:45:28.648Z,20.80
2019-02-04T10:47:57.838Z,20.70
2019-02-04T10:50:46.678Z,20.70
2019-02-04T10:53:18.442Z,20.60
2019-02-04T10:58:41.364Z,20.50
2019-02-04T11:01:10.524Z,20.50
2019-02-04T11:03:47.371Z,20.50
2019-02-04T11:09:07.772Z,20.40
2019-02-04T11:11:44.083Z,20.30
2019-02-04T11:17:00.668Z,20.30
2019-02-04T11:19:30.199Z,20.20
2019-02-04T11:25:29.999Z,20.10
2019-02-04T11:27:59.980Z,20.10
2019-02-04T11:31:07.679Z,20.00
2019-02-04T11:33:55.499Z,20.00
2019-02-04T11:41:54.433Z,19.90
2019-02-04T11:44:22.882Z,19.80
2019-02-04T11:46:54.266Z,19.90
2019-02-04T11:49:23.435Z,19.90
2019-02-04T11:51:52.399Z,19.90
2019-02-04T11:54:21.925Z,19.80
2019-02-04T11:56:50.846Z,19.80
2019-02-04T11:59:22.064Z,19.80
2019-02-04T12:01:51.662Z,19.80
2019-02-04T12:04:21.449Z,19.70
2019-02-04T12:06:54.700Z,19.70
2019-02-04T12:09:27.537Z,19.70
2019-02-04T12:11:56.367Z,19.70
2019-02-04T12:14:32.796Z,19.60
2019-02-04T12:17:02.919Z,19.60
2019-02-04T12:19:32.181Z,19.60
2019-02-04T12:22:07.431Z,19.60
2019-02-04T12:24:41.378Z,19.50
2019-02-04T12:27:38.189Z,19.50
2019-02-04T12:30:12.217Z,19.50
2019-02-04T12:32:45.665Z,19.50
2019-02-04T12:35:17.051Z,19.40
2019-02-04T12:37:49.349Z,19.40
2019-02-04T12:40:20.437Z,19.40
2019-02-04T12:42:52.341Z,19.40
2019-02-04T12:45:25.741Z,19.40
2019-02-04T12:48:03.528Z,19.40
2019-02-04T12:50:32.825Z,19.40
2019-02-04T12:53:02.062Z,19.30
2019-02-04T12:55:34.308Z,19.30
2019-02-04T12:58:04.824Z,19.30
2019-02-04T13:00:37.364Z,19.30
2019-02-04T13:03:15.076Z,19.30
2019-02-04T13:05:52.538Z,19.20
2019-02-04T13:21:45.815Z,18.90
2019-02-04T13:24:15.150Z,18.90
2019-02-04T13:26:44.177Z,18.90
2019-02-04T13:29:33.385Z,18.90
2019-02-04T13:32:07.198Z,18.90
2019-02-04T13:34:40.077Z,18.90
2019-02-04T13:37:10.901Z,18.90
2019-02-04T13:39:42.123Z,18.90
2019-02-04T13:42:11.384Z,18.90
2019-02-04T13:44:43.169Z,18.90
2019-02-04T13:47:13.586Z,18.90
2019-02-04T13:49:42.836Z,18.90
2019-02-04T13:52:15.353Z,18.80
2019-02-04T13:54:46.579Z,18.80
2019-02-04T13:57:24.545Z,18.80
2019-02-04T13:59:54.311Z,18.80
2019-02-04T14:02:25.774Z,18.80
2019-02-04T14:04:56.615Z,18.90
2019-02-04T14:07:34.509Z,18.90
2019-02-04T14:10:07.001Z,19.00
2019-02-04T14:12:36.366Z,19.10
2019-02-04T14:15:13.393Z,19.20
2019-02-04T14:17:42.154Z,19.40
2019-02-04T14:32:39.153Z,20.30
2019-02-04T14:35:10.145Z,20.50
2019-02-04T14:37:45.043Z,20.70
2019-02-04T14:40:18.275Z,20.80
2019-02-04T14:42:46.356Z,20.90
2019-02-04T14:45:37.315Z,21.00
2019-02-04T14:51:12.508Z,21.20
2019-02-04T14:57:16.400Z,21.40
2019-02-04T14:59:50.643Z,21.40
2019-02-04T15:02:40.970Z,21.50
2019-02-04T15:05:29.049Z,21.50
2019-02-04T15:11:07.489Z,21.60
2019-02-04T15:18:21.604Z,21.80
2019-02-04T15:21:27.452Z,21.80
2019-02-04T15:24:47.175Z,21.90
2019-02-04T15:27:47.251Z,21.90
2019-02-04T15:30:52.600Z,22.00
2019-02-04T15:34:10.623Z,22.00
2019-02-04T15:37:21.050Z,21.90
2019-02-04T15:40:31.324Z,21.80
2019-02-04T15:43:42.956Z,21.80
2019-02-04T15:47:28.170Z,21.80
2019-02-04T15:50:57.755Z,21.90
2019-02-04T15:53:28.855Z,22.00
2019-02-04T15:56:00.794Z,22.00
2019-02-04T15:58:30.419Z,22.10
2019-02-04T16:01:04.525Z,22.20
2019-02-04T16:03:32.613Z,22.30
2019-02-04T16:06:02.651Z,22.40
2019-02-04T16:08:40.626Z,22.50
2019-02-04T16:11:21.213Z,22.50
2019-02-04T16:13:41.448Z,22.50
2019-02-04T16:16:10.742Z,22.50
2019-02-04T16:18:40.267Z,22.40
2019-02-04T16:21:14.197Z,22.40
2019-02-04T16:23:48.223Z,22.30
2019-02-04T16:26:20.780Z,22.20
2019-02-04T16:28:51.969Z,22.10
2019-02-04T16:31:24.650Z,22.00
2019-02-04T16:33:53.617Z,21.90
2019-02-04T16:36:23.518Z,21.80
2019-02-04T16:39:00.221Z,21.70
2019-02-04T16:41:32.076Z,21.60
2019-02-04T16:44:15.470Z,21.50
2019-02-04T16:46:32.207Z,21.50
2019-02-04T16:49:16.528Z,21.40
2019-02-04T16:51:53.109Z,21.30
2019-02-04T16:54:27.227Z,21.20
2019-02-04T16:56:57.920Z,21.20
2019-02-04T16:59:35.566Z,21.10
2019-02-04T17:02:06.981Z,21.00
2019-02-04T17:04:43.703Z,21.00
2019-02-04T17:07:28.401Z,21.00
2019-02-04T17:10:05.337Z,20.90
2019-02-04T17:12:43.801Z,20.80
2019-02-04T17:15:19.656Z,20.80
2019-02-04T17:17:51.513Z,20.70
2019-02-04T17:20:29.439Z,20.70
2019-02-04T17:22:59.610Z,20.60
2019-02-04T17:25:29.712Z,20.50
2019-02-04T17:28:03.077Z,20.50
2019-02-04T17:30:46.578Z,20.50
2019-02-04T17:33:17.286Z,20.50
2019-02-04T17:35:52.702Z,20.40
2019-02-04T17:38:22.211Z,20.40
2019-02-04T17:40:58.788Z,20.50
2019-02-04T17:43:37.804Z,20.60
2019-02-04T17:46:08.440Z,20.70
2019-02-04T17:48:41.115Z,20.70
2019-02-04T17:51:13.447Z,20.80
2019-02-04T17:53:48.732Z,21.00
2019-02-04T17:56:23.516Z,21.20
2019-02-04T17:58:54.458Z,21.50
2019-02-04T18:01:25.978Z,22.00
2019-02-04T18:03:58.718Z,22.30
2019-02-04T18:06:34.263Z,22.70
2019-02-04T18:09:19.406Z,22.80
2019-02-04T18:11:54.678Z,23.00
2019-02-04T18:17:18.077Z,23.20
2019-02-04T18:19:49.090Z,23.30
2019-02-04T18:22:20.143Z,23.40
2019-02-04T18:24:59.226Z,23.40
2019-02-04T18:30:29.942Z,23.20
2019-02-04T18:33:03.186Z,23.10
2019-02-04T18:35:32.451Z,22.90
2019-02-04T18:40:37.153Z,22.60
2019-02-04T19:03:17.307Z,22.10
2019-02-04T19:05:42.716Z,22.10
2019-02-04T19:08:21.145Z,22.20
2019-02-04T19:10:53.599Z,22.40
2019-02-04T19:13:36.178Z,22.50
2019-02-04T19:33:53.291Z,22.60
2019-02-04T19:36:29.282Z,22.50
2019-02-04T19:39:06.853Z,22.50
2019-02-04T19:41:37.714Z,22.40
2019-02-04T19:44:07.347Z,22.40
2019-02-04T19:46:36.474Z,22.40
2019-02-04T19:52:02.132Z,22.70
2019-02-04T19:54:31.839Z,22.70
2019-02-04T19:57:06.783Z,22.60
2019-02-04T19:59:36.488Z,22.60
2019-02-04T20:02:10.914Z,22.50
2019-02-04T20:04:53.556Z,22.40
2019-02-04T20:07:24.990Z,22.40
2019-02-04T20:09:56.450Z,22.40
2019-02-04T20:12:47.930Z,22.40
2019-02-04T20:15:40.299Z,22.40
2019-02-04T20:18:09.304Z,22.40
2019-02-04T20:20:44.984Z,22.20
2019-02-04T20:23:19.874Z,22.10
2019-02-04T20:25:49.932Z,22.00
2019-02-04T20:28:24.025Z,21.90
2019-02-04T20:30:56.775Z,21.80
2019-02-04T20:33:28.405Z,21.90
2019-02-04T20:39:16.935Z,21.90
2019-02-04T20:41:46.193Z,22.00
2019-02-04T20:44:27.574Z,22.00
2019-02-04T20:46:56.465Z,22.10
2019-02-04T20:49:25.555Z,22.20
2019-02-04T20:51:55.003Z,22.40
2019-02-04T20:54:31.390Z,22.50
2019-02-04T20:57:15.247Z,22.70
2019-02-04T20:59:44.274Z,22.80
2019-02-04T21:02:15.846Z,22.80
2019-02-04T21:04:46.956Z,22.80
2019-02-04T21:07:20.102Z,22.80
2019-02-04T21:10:00.841Z,22.80
2019-02-04T21:12:25.547Z,22.70
2019-02-04T21:14:54.703Z,22.70
2019-02-04T21:17:28.737Z,22.60
2019-02-04T21:20:06.137Z,22.60
2019-02-04T21:22:41.497Z,22.50
2019-02-04T21:25:10.697Z,22.40
2019-02-04T21:27:39.574Z,22.40
2019-02-04T21:30:23.058Z,22.30
2019-02-04T21:32:55.630Z,22.30
2019-02-04T21:35:24.759Z,22.20
2019-02-04T21:37:56.085Z,22.20
2019-02-04T21:46:18.975Z,22.10
2019-02-04T21:48:48.614Z,22.10
2019-02-04T21:51:20.161Z,22.10
2019-02-04T21:53:51.300Z,22.10
2019-02-04T22:01:57.822Z,22.10
2019-02-04T22:04:36.269Z,22.10
2019-02-04T22:07:09.747Z,22.10
2019-02-04T22:09:42.259Z,22.10
2019-02-04T22:12:12.066Z,22.10
2019-02-04T22:14:44.563Z,22.10
2019-02-04T22:17:30.605Z,22.00
2019-02-04T22:20:02.705Z,22.00
2019-02-04T22:22:53.857Z,21.90
2019-02-04T22:25:36.637Z,21.90
2019-02-04T22:28:06.325Z,22.00
2019-02-04T22:30:37.960Z,22.10
2019-02-04T22:33:16.844Z,22.30
2019-02-04T22:35:47.878Z,22.40
2019-02-04T22:38:17.226Z,22.70
2019-02-04T22:40:47.064Z,22.70
2019-02-04T22:43:18.212Z,22.80
2019-02-04T22:45:53.355Z,22.90
2019-02-04T22:48:26.918Z,22.90
2019-02-04T22:51:04.405Z,22.80
2019-02-04T22:53:33.737Z,22.80
2019-02-04T22:56:02.848Z,22.90
2019-02-04T22:58:33.171Z,22.90
2019-02-04T23:01:45.380Z,23.00
2019-02-04T23:04:17.418Z,23.10
2019-02-04T23:06:57.408Z,23.20
2019-02-04T23:12:20.321Z,23.40
2019-02-04T23:14:57.839Z,23.50
2019-02-04T23:17:29.847Z,23.60
2019-02-04T23:19:59.248Z,23.60
2019-02-04T23:22:48.922Z,23.70
2019-02-04T23:25:18.407Z,23.80
2019-02-04T23:27:47.521Z,23.80
2019-02-04T23:30:21.583Z,23.80
2019-02-04T23:32:52.192Z,23.70
2019-02-04T23:35:25.757Z,23.70
2019-02-04T23:37:56.448Z,23.60
2019-02-04T23:40:41.011Z,23.50
2019-02-04T23:43:10.012Z,23.50
2019-02-04T23:48:50.181Z,23.30
2019-02-04T23:51:19.421Z,23.20
2019-02-04T23:56:55.972Z,23.10
2019-02-04T23:59:31.516Z,23.00
